Time;durP1;ratioP1;P1;durP2;ratioP2;P2;SDS_P1;SDS_P2;PMS_P1;PMS_P2;Temp;Humidity;BMP_temperature;BMP_pressure;BME280_temperature;BME280_humidity;BME280_pressure;Samples;Min_cycle;Max_cycle;Signal;HPM_P1;HPM_P2
2022/07/06 00:01:32;;;;;;;1.38;1.27;;;19.60;64.10;;;;;;5095350;28;20032;-63
2022/07/06 00:03:58;;;;;;;3.22;1.50;;;19.50;64.00;;;;;;5095339;28;20035;-65
2022/07/06 00:06:24;;;;;;;1.65;1.48;;;19.50;64.20;;;;;;5095092;27;20032;-65
2022/07/06 00:08:50;;;;;;;1.50;1.40;;;19.40;64.30;;;;;;5093312;27;20085;-65
2022/07/06 00:11:16;;;;;;;2.53;1.70;;;19.40;64.30;;;;;;5094962;28;20040;-65
2022/07/06 00:13:42;;;;;;;3.55;1.35;;;19.30;64.40;;;;;;5095534;28;20415;-64
2022/07/06 00:16:07;;;;;;;1.90;1.55;;;19.20;64.60;;;;;;5093597;28;20043;-65
2022/07/06 00:18:33;;;;;;;2.03;1.55;;;19.20;64.90;;;;;;5094249;27;20028;-64
2022/07/06 00:20:59;;;;;;;3.42;1.65;;;19.10;64.90;;;;;;5096226;28;20028;-65
2022/07/06 00:23:24;;;;;;;2.50;1.60;;;19.10;65.10;;;;;;5093101;28;20476;-66
2022/07/06 00:25:50;;;;;;;2.38;1.70;;;19.00;65.40;;;;;;5095707;28;20035;-65
2022/07/06 00:28:16;;;;;;;1.65;1.52;;;19.00;65.50;;;;;;5096553;28;20036;-65
2022/07/06 00:30:41;;;;;;;1.75;1.65;;;18.90;65.50;;;;;;5093051;28;20038;-65
2022/07/06 00:33:07;;;;;;;2.08;1.48;;;18.90;65.60;;;;;;5095680;28;20032;-64
2022/07/06 00:35:33;;;;;;;4.75;1.60;;;18.90;65.90;;;;;;5094462;28;20133;-65
2022/07/06 00:37:59;;;;;;;1.67;1.50;;;18.80;66.00;;;;;;5096171;28;20028;-65
2022/07/06 00:40:24;;;;;;;1.98;1.50;;;18.80;66.10;;;;;;5079465;28;20070;-64
2022/07/06 00:42:50;;;;;;;3.47;1.60;;;18.70;66.40;;;;;;5093160;28;20040;-65
2022/07/06 00:45:17;;;;;;;2.30;1.50;;;18.60;66.40;;;;;;5094616;28;20245;-65
2022/07/06 00:47:44;;;;;;;2.00;1.50;;;18.60;66.30;;;;;;5093359;28;20051;-65
2022/07/06 00:50:14;;;;;;;1.33;1.23;;;18.50;66.20;;;;;;5092410;28;20034;-64
2022/07/06 00:52:46;;;;;;;5.85;1.30;;;18.50;66.20;;;;;;5091743;28;20036;-64
2022/07/06 00:55:12;;;;;;;4.13;1.52;;;18.50;66.60;;;;;;5094503;28;20115;-64
2022/07/06 00:57:39;;;;;;;2.30;1.50;;;18.50;66.00;;;;;;5094660;28;20470;-64
2022/07/06 01:00:07;;;;;;;1.38;1.27;;;18.50;65.70;;;;;;5095150;28;20032;-64
2022/07/06 01:02:33;;;;;;;1.88;1.40;;;18.40;65.70;;;;;;5096046;28;20035;-64
2022/07/06 01:04:59;;;;;;;1.60;1.50;;;18.30;65.80;;;;;;5095521;28;20023;-65
2022/07/06 01:07:25;;;;;;;1.75;1.60;;;18.20;65.90;;;;;;5094614;28;20652;-64
2022/07/06 01:09:51;;;;;;;1.83;1.33;;;18.20;66.30;;;;;;5095930;28;20032;-64
2022/07/06 01:12:18;;;;;;;1.58;1.25;;;18.10;66.30;;;;;;5094804;28;20043;-63
2022/07/06 01:14:44;;;;;;;1.73;1.40;;;18.10;66.70;;;;;;5094141;28;20077;-65
2022/07/06 01:17:10;;;;;;;1.50;1.40;;;18.10;67.10;;;;;;5093676;28;20403;-65
2022/07/06 01:19:36;;;;;;;1.50;1.40;;;18.10;67.30;;;;;;5095090;28;20028;-65
2022/07/06 01:22:02;;;;;;;1.45;1.35;;;18.00;67.40;;;;;;5092398;28;20441;-65
2022/07/06 01:24:28;;;;;;;1.50;1.40;;;18.00;67.40;;;;;;5092591;28;20537;-65
2022/07/06 01:26:54;;;;;;;1.63;1.52;;;18.10;67.60;;;;;;5093909;28;20055;-65
2022/07/06 01:29:19;;;;;;;1.60;1.50;;;18.10;67.60;;;;;;5095814;28;20024;-64
2022/07/06 01:31:49;;;;;;;1.58;1.45;;;18.00;67.40;;;;;;5093566;28;20517;-65
2022/07/06 01:34:18;;;;;;;1.65;1.55;;;18.00;68.00;;;;;;5095223;28;20032;-64
2022/07/06 01:36:44;;;;;;;1.45;1.35;;;18.00;68.10;;;;;;5092249;28;20098;-64
2022/07/06 01:39:10;;;;;;;1.38;1.27;;;17.90;68.10;;;;;;5095668;28;20027;-65
2022/07/06 01:41:37;;;;;;;1.60;1.50;;;17.90;68.20;;;;;;5096295;28;20556;-64
2022/07/06 01:44:04;;;;;;;2.40;1.40;;;17.90;68.10;;;;;;5098605;28;20024;-64
2022/07/06 01:46:30;;;;;;;3.20;1.60;;;17.80;68.10;;;;;;5094855;28;20076;-65
2022/07/06 01:48:56;;;;;;;3.75;1.77;;;17.70;68.20;;;;;;5097706;28;20461;-64
2022/07/06 01:51:22;;;;;;;5.28;1.50;;;17.70;68.50;;;;;;5097622;28;20235;-64
2022/07/06 01:53:49;;;;;;;1.75;1.58;;;17.60;68.60;;;;;;5094698;28;20032;-65
2022/07/06 01:56:15;;;;;;;2.55;1.35;;;17.60;68.80;;;;;;5095910;28;20040;-65
2022/07/06 01:58:40;;;;;;;2.75;1.70;;;17.50;68.80;;;;;;5095217;28;20028;-64
2022/07/06 02:01:11;;;;;;;1.80;1.70;;;17.50;69.00;;;;;;5098265;28;20040;-65
2022/07/06 02:03:37;;;;;;;1.80;1.70;;;17.40;69.20;;;;;;5096896;28;20028;-65
2022/07/06 02:06:04;;;;;;;3.05;1.67;;;17.40;69.30;;;;;;5098420;28;20386;-63
2022/07/06 02:08:29;;;;;;;1.60;1.50;;;17.30;69.40;;;;;;5095013;28;20044;-64
2022/07/06 02:10:55;;;;;;;1.85;1.73;;;17.20;69.50;;;;;;5098048;28;20044;-65
2022/07/06 02:13:21;;;;;;;2.92;1.55;;;17.20;69.90;;;;;;5096421;28;20570;-64
2022/07/06 02:15:47;;;;;;;4.53;2.05;;;17.20;70.00;;;;;;5094858;28;20040;-63
2022/07/06 02:18:12;;;;;;;3.75;2.10;;;17.10;70.00;;;;;;5096457;28;20502;-65
2022/07/06 02:20:38;;;;;;;3.75;2.20;;;17.10;70.20;;;;;;5095699;28;20089;-64
2022/07/06 02:23:03;;;;;;;2.85;1.80;;;17.10;70.40;;;;;;5097028;28;20035;-65
2022/07/06 02:25:29;;;;;;;1.70;1.60;;;17.10;70.30;;;;;;5095167;28;20225;-64
2022/07/06 02:27:55;;;;;;;2.83;1.88;;;17.10;70.10;;;;;;5099056;28;20098;-64
2022/07/06 02:30:21;;;;;;;2.08;1.70;;;17.10;69.90;;;;;;5094395;27;20042;-64
2022/07/06 02:32:46;;;;;;;1.90;1.80;;;17.10;69.80;;;;;;5094750;28;20032;-64
2022/07/06 02:35:12;;;;;;;3.40;1.77;;;17.10;69.70;;;;;;5095629;28;20040;-64
2022/07/06 02:37:39;;;;;;;1.65;1.55;;;17.00;69.60;;;;;;5097813;28;20041;-64
2022/07/06 02:40:05;;;;;;;2.72;1.80;;;17.00;69.60;;;;;;5097176;28;20552;-64
2022/07/06 02:42:31;;;;;;;2.38;1.70;;;17.00;69.70;;;;;;5094760;28;20402;-64
2022/07/06 02:44:56;;;;;;;1.75;1.65;;;17.00;69.70;;;;;;5096712;28;20036;-64
2022/07/06 02:47:22;;;;;;;2.00;1.90;;;16.90;69.60;;;;;;5097426;28;20028;-64
2022/07/06 02:49:48;;;;;;;3.20;1.80;;;16.90;69.50;;;;;;5096492;28;20542;-64
2022/07/06 02:52:13;;;;;;;1.88;1.73;;;16.90;69.50;;;;;;5094923;28;20384;-64
2022/07/06 02:54:39;;;;;;;2.80;1.73;;;16.80;69.40;;;;;;5092818;28;20360;-64
2022/07/06 02:57:04;;;;;;;4.03;1.60;;;16.80;69.50;;;;;;5095018;28;20029;-64
2022/07/06 02:59:30;;;;;;;2.47;1.88;;;16.80;69.60;;;;;;5096419;28;20028;-64
2022/07/06 03:01:56;;;;;;;2.90;1.70;;;16.80;69.80;;;;;;5083158;28;20031;-65
2022/07/06 03:04:21;;;;;;;4.72;1.70;;;16.70;69.70;;;;;;5098929;28;20135;-64
2022/07/06 03:06:47;;;;;;;3.17;1.58;;;16.70;69.50;;;;;;5098060;28;20102;-64
2022/07/06 03:09:12;;;;;;;2.72;2.10;;;16.60;69.50;;;;;;5081841;28;20092;-64
2022/07/06 03:11:38;;;;;;;2.00;1.77;;;16.60;69.30;;;;;;5098790;27;20036;-64
2022/07/06 03:14:04;;;;;;;1.70;1.60;;;16.60;69.20;;;;;;5098264;28;20609;-64
2022/07/06 03:16:30;;;;;;;2.17;1.70;;;16.60;69.30;;;;;;5080671;28;20027;-65
2022/07/06 03:18:56;;;;;;;1.77;1.67;;;16.50;69.20;;;;;;5098537;28;20053;-64
2022/07/06 03:21:23;;;;;;;1.67;1.52;;;16.50;69.40;;;;;;5096397;28;20036;-63
2022/07/06 03:23:48;;;;;;;4.13;1.85;;;16.50;69.40;;;;;;5094856;28;20032;-64
2022/07/06 03:26:14;;;;;;;2.83;1.60;;;16.50;69.30;;;;;;5095247;28;20071;-65
2022/07/06 03:28:39;;;;;;;3.17;1.73;;;16.50;69.40;;;;;;5095207;28;20548;-64
2022/07/06 03:31:05;;;;;;;2.35;2.00;;;16.50;69.30;;;;;;5095462;28;20024;-64
2022/07/06 03:33:31;;;;;;;2.38;1.60;;;16.40;69.30;;;;;;5094803;28;20032;-64
2022/07/06 03:35:57;;;;;;;1.77;1.67;;;16.40;69.20;;;;;;5096574;28;20028;-64
2022/07/06 03:38:22;;;;;;;1.90;1.65;;;16.40;69.20;;;;;;5094124;28;20040;-64
2022/07/06 03:40:48;;;;;;;2.13;1.92;;;16.40;69.20;;;;;;5092765;28;20032;-64
2022/07/06 03:43:13;;;;;;;1.50;1.40;;;16.30;69.50;;;;;;5095961;28;20035;-65
2022/07/06 03:45:39;;;;;;;2.78;1.80;;;16.30;69.50;;;;;;5093933;28;20100;-64
2022/07/06 03:48:05;;;;;;;2.53;1.70;;;16.30;69.60;;;;;;5092158;28;20515;-65
2022/07/06 03:50:31;;;;;;;2.13;1.80;;;16.30;69.80;;;;;;5094642;28;20035;-63
2022/07/06 03:52:56;;;;;;;2.75;1.80;;;16.30;69.90;;;;;;5094045;28;20059;-64
2022/07/06 03:55:22;;;;;;;2.42;2.15;;;16.30;70.20;;;;;;5092711;28;20392;-64
2022/07/06 03:57:48;;;;;;;6.43;1.88;;;16.30;70.20;;;;;;5092696;28;20043;-64
2022/07/06 04:00:14;;;;;;;2.42;2.03;;;16.30;70.10;;;;;;5094303;28;20055;-64
2022/07/06 04:02:40;;;;;;;2.95;1.90;;;16.30;70.20;;;;;;5092021;28;20188;-64
2022/07/06 04:05:06;;;;;;;1.95;1.77;;;16.30;70.30;;;;;;5095675;28;20034;-64
2022/07/06 04:07:31;;;;;;;2.10;1.75;;;16.30;70.20;;;;;;5094461;28;20455;-62
2022/07/06 04:09:57;;;;;;;2.15;1.95;;;16.40;70.50;;;;;;5093313;28;20126;-65
2022/07/06 04:12:23;;;;;;;5.40;2.00;;;16.40;70.50;;;;;;5094105;28;20036;-64
2022/07/06 04:14:48;;;;;;;3.70;1.88;;;16.40;70.60;;;;;;5092430;28;20431;-65
2022/07/06 04:19:58;;;;;;;2.08;1.77;;;16.50;70.90;;;;;;5093900;28;20063;-64
2022/07/06 04:22:24;;;;;;;2.30;1.85;;;16.50;70.70;;;;;;5092134;28;20115;-64
2022/07/06 04:24:50;;;;;;;2.00;1.85;;;16.50;70.60;;;;;;5092220;28;20024;-62
2022/07/06 04:27:15;;;;;;;2.58;2.10;;;16.50;70.80;;;;;;5093749;28;20036;-64
2022/07/06 04:29:41;;;;;;;2.53;1.95;;;16.50;70.90;;;;;;5094316;28;20119;-64
2022/07/06 04:32:07;;;;;;;3.35;1.88;;;16.60;71.20;;;;;;5095119;28;20040;-63
2022/07/06 04:34:33;;;;;;;3.20;1.60;;;16.60;71.40;;;;;;5096304;28;20039;-64
2022/07/06 04:36:58;;;;;;;2.40;1.80;;;16.60;71.60;;;;;;5096007;28;20036;-64
2022/07/06 04:39:24;;;;;;;1.90;1.80;;;16.70;71.60;;;;;;5095192;28;20067;-64
2022/07/06 04:41:49;;;;;;;3.45;2.10;;;16.80;71.70;;;;;;5095438;28;20032;-64
2022/07/06 04:44:15;;;;;;;1.88;1.77;;;16.80;71.80;;;;;;5094782;28;20094;-64
2022/07/06 04:46:40;;;;;;;2.65;1.83;;;16.80;71.30;;;;;;5093716;28;20043;-64
2022/07/06 04:49:06;;;;;;;2.17;1.98;;;16.90;71.30;;;;;;5094078;28;20061;-64
2022/07/06 04:51:32;;;;;;;1.90;1.80;;;17.00;71.10;;;;;;5093239;28;20032;-63
2022/07/06 04:53:58;;;;;;;4.35;1.88;;;17.00;70.80;;;;;;5097152;28;20352;-64
2022/07/06 04:56:23;;;;;;;2.45;1.92;;;17.10;70.40;;;;;;5094135;28;20471;-64
2022/07/06 04:58:49;;;;;;;2.30;2.08;;;17.00;70.30;;;;;;5094855;28;20035;-64
2022/07/06 05:01:15;;;;;;;2.92;2.25;;;17.20;69.90;;;;;;5096297;28;20565;-65
2022/07/06 05:03:40;;;;;;;2.33;2.10;;;17.20;69.90;;;;;;5095904;28;20143;-63
2022/07/06 05:06:07;;;;;;;2.50;2.03;;;17.30;69.90;;;;;;5096296;28;20062;-64
2022/07/06 05:08:33;;;;;;;3.03;1.85;;;17.30;69.70;;;;;;5095582;28;20067;-63
2022/07/06 05:10:59;;;;;;;7.95;1.90;;;17.30;69.70;;;;;;5094442;28;20032;-65
2022/07/06 05:13:25;;;;;;;3.95;2.03;;;17.30;69.30;;;;;;5094847;28;20497;-64
2022/07/06 05:15:50;;;;;;;2.53;2.17;;;17.40;69.10;;;;;;5095864;28;20395;-64
2022/07/06 05:18:16;;;;;;;1.98;1.88;;;17.40;69.10;;;;;;5098385;28;20157;-64
2022/07/06 05:20:42;;;;;;;6.35;2.17;;;17.50;69.00;;;;;;5097721;28;20078;-65
2022/07/06 05:23:08;;;;;;;7.65;2.30;;;17.50;68.60;;;;;;5100024;28;20028;-65
2022/07/06 05:25:33;;;;;;;3.60;1.88;;;17.60;68.80;;;;;;5099920;28;20629;-65
2022/07/06 05:27:59;;;;;;;3.28;1.90;;;17.70;68.50;;;;;;5089386;28;20093;-64
2022/07/06 05:30:26;;;;;;;4.00;2.05;;;17.70;68.00;;;;;;5098131;28;20043;-64
2022/07/06 05:32:51;;;;;;;5.28;2.05;;;17.80;68.00;;;;;;5100626;28;20050;-64
2022/07/06 05:35:17;;;;;;;3.47;2.30;;;17.90;68.10;;;;;;5096964;28;20590;-64
2022/07/06 05:37:43;;;;;;;2.90;2.13;;;18.00;68.10;;;;;;5098149;28;20554;-63
2022/07/06 05:40:09;;;;;;;5.35;2.30;;;18.10;68.40;;;;;;5098207;28;20055;-65
2022/07/06 05:42:35;;;;;;;1.90;1.80;;;18.20;68.10;;;;;;5099414;28;20109;-64
2022/07/06 05:45:03;;;;;;;3.63;1.90;;;18.30;66.90;;;;;;5099442;28;20032;-65
2022/07/06 05:50:13;;;;;;;2.22;1.98;;;18.50;66.20;;;;;;5098335;28;20035;-64
2022/07/06 05:52:44;;;;;;;2.58;2.05;;;18.60;65.90;;;;;;5096716;28;20028;-64
2022/07/06 05:55:11;;;;;;;2.13;2.03;;;18.70;65.00;;;;;;5097882;28;20043;-64
2022/07/06 05:57:37;;;;;;;2.45;2.20;;;18.80;64.50;;;;;;5097627;28;20054;-65
2022/07/06 06:00:05;;;;;;;2.50;1.90;;;18.80;63.90;;;;;;5098639;28;20028;-64
2022/07/06 06:02:40;;;;;;;3.13;2.05;;;18.90;64.10;;;;;;5097057;28;20030;-64
2022/07/06 06:05:10;;;;;;;3.90;2.20;;;19.00;63.00;;;;;;5097651;28;20123;-65
2022/07/06 06:07:37;;;;;;;2.80;2.35;;;19.10;63.10;;;;;;5097407;28;20032;-64
2022/07/06 06:10:04;;;;;;;4.05;2.13;;;19.20;63.80;;;;;;5100422;28;20028;-64
2022/07/06 06:12:30;;;;;;;2.55;2.35;;;19.20;63.50;;;;;;5098352;28;20032;-64
2022/07/06 06:14:55;;;;;;;2.35;1.80;;;19.30;62.90;;;;;;5097843;28;20376;-64
2022/07/06 06:17:21;;;;;;;4.50;2.47;;;19.40;62.80;;;;;;5098217;27;20055;-64
2022/07/06 06:19:46;;;;;;;2.92;2.08;;;19.50;63.20;;;;;;5098215;28;20032;-64
2022/07/06 06:22:13;;;;;;;2.35;1.85;;;19.60;61.80;;;;;;5100368;27;20028;-64
2022/07/06 06:24:38;;;;;;;2.17;1.95;;;19.60;61.60;;;;;;5096912;28;20506;-64
2022/07/06 06:27:04;;;;;;;3.20;2.00;;;19.70;61.40;;;;;;5097833;28;20054;-65
2022/07/06 06:29:30;;;;;;;4.20;2.17;;;19.80;61.10;;;;;;5096477;27;20093;-64
2022/07/06 06:31:55;;;;;;;4.53;2.00;;;19.80;60.60;;;;;;5097543;28;20024;-64
2022/07/06 06:34:21;;;;;;;2.95;1.90;;;19.90;60.60;;;;;;5096778;27;20123;-64
2022/07/06 06:36:47;;;;;;;2.25;2.05;;;19.90;60.10;;;;;;5095057;28;20042;-64
2022/07/06 06:39:12;;;;;;;2.03;1.92;;;20.00;60.30;;;;;;5098375;28;20033;-64
2022/07/06 06:41:38;;;;;;;1.90;1.80;;;20.00;60.20;;;;;;5100024;28;20110;-65
2022/07/06 06:44:03;;;;;;;2.45;1.98;;;20.10;60.00;;;;;;5099567;28;20544;-65
2022/07/06 06:46:29;;;;;;;2.28;2.00;;;20.10;59.80;;;;;;5099114;28;20036;-64
2022/07/06 06:48:55;;;;;;;2.88;2.10;;;20.20;60.00;;;;;;5097488;28;20034;-64
2022/07/06 06:51:20;;;;;;;1.90;1.80;;;20.20;59.70;;;;;;5097437;28;20038;-64
2022/07/06 06:53:46;;;;;;;2.08;1.88;;;20.30;59.50;;;;;;5096577;28;20032;-65
2022/07/06 06:56:12;;;;;;;2.50;2.28;;;20.40;59.60;;;;;;5100012;28;20032;-65
2022/07/06 06:58:38;;;;;;;3.25;2.10;;;20.50;59.60;;;;;;5095645;28;20650;-64
2022/07/06 07:01:04;;;;;;;7.05;2.17;;;20.50;59.10;;;;;;5099651;28;20134;-64
2022/07/06 07:03:30;;;;;;;2.40;1.90;;;20.50;59.10;;;;;;5095894;28;20047;-64
2022/07/06 07:05:56;;;;;;;2.63;1.83;;;20.60;59.40;;;;;;5095788;28;20089;-64
2022/07/06 07:08:22;;;;;;;2.92;1.80;;;20.70;59.30;;;;;;5098541;28;20067;-64
2022/07/06 07:10:48;;;;;;;2.60;1.90;;;20.70;59.40;;;;;;5095102;28;20063;-65
2022/07/06 07:13:13;;;;;;;2.90;2.00;;;20.80;58.80;;;;;;5099646;28;20036;-64
2022/07/06 07:15:39;;;;;;;2.42;2.20;;;20.80;58.40;;;;;;5096037;27;20024;-64
2022/07/06 07:18:04;;;;;;;2.95;2.00;;;20.90;58.20;;;;;;5095612;27;20035;-64
2022/07/06 07:20:31;;;;;;;1.85;1.73;;;20.90;58.50;;;;;;5096547;28;20085;-64
2022/07/06 07:22:57;;;;;;;2.67;1.90;;;20.90;58.50;;;;;;5097337;28;20074;-65
2022/07/06 07:25:23;;;;;;;4.43;2.15;;;20.90;58.60;;;;;;5096358;27;20040;-64
2022/07/06 07:27:48;;;;;;;1.92;1.63;;;21.00;58.00;;;;;;5098068;28;20034;-64
2022/07/06 07:30:14;;;;;;;4.45;2.20;;;21.00;58.50;;;;;;5098193;28;20039;-64
2022/07/06 07:32:42;;;;;;;2.17;1.98;;;21.00;58.30;;;;;;5096484;28;20119;-64
2022/07/06 07:35:09;;;;;;;2.28;1.98;;;21.10;58.20;;;;;;5096784;28;20031;-65
2022/07/06 07:37:34;;;;;;;2.00;1.80;;;21.10;58.00;;;;;;5096960;28;20124;-63
2022/07/06 07:40:01;;;;;;;3.22;1.67;;;21.10;58.00;;;;;;5079150;28;20059;-64
2022/07/06 07:42:26;;;;;;;2.45;1.73;;;21.10;58.10;;;;;;5095978;28;20031;-64
2022/07/06 07:44:52;;;;;;;3.08;1.90;;;21.10;58.20;;;;;;5096175;28;20501;-63
2022/07/06 07:47:18;;;;;;;3.60;1.85;;;21.20;57.90;;;;;;5095511;28;20039;-65
2022/07/06 07:49:43;;;;;;;2.35;1.85;;;21.20;58.00;;;;;;5095573;28;20451;-65
2022/07/06 07:52:09;;;;;;;2.67;2.20;;;21.20;58.10;;;;;;5096865;28;20055;-65
2022/07/06 07:54:35;;;;;;;2.20;2.00;;;21.30;57.90;;;;;;5096243;28;20024;-64
2022/07/06 07:57:01;;;;;;;2.90;1.70;;;21.30;57.60;;;;;;5095304;28;20031;-64
2022/07/06 07:59:26;;;;;;;4.35;1.60;;;21.30;58.30;;;;;;5096235;28;20040;-63
2022/07/06 08:01:52;;;;;;;1.73;1.60;;;21.40;58.20;;;;;;5092042;28;20051;-64
2022/07/06 08:04:18;;;;;;;2.35;1.90;;;21.40;58.10;;;;;;5096627;28;20031;-64
2022/07/06 08:06:44;;;;;;;3.03;1.80;;;21.50;58.00;;;;;;5095315;28;21229;-64
2022/07/06 08:09:09;;;;;;;2.58;1.83;;;21.50;58.10;;;;;;5096940;28;20491;-63
2022/07/06 08:11:35;;;;;;;3.13;2.00;;;21.60;57.80;;;;;;5078735;28;20058;-64
2022/07/06 08:14:01;;;;;;;1.90;1.80;;;21.60;57.70;;;;;;5097316;28;20557;-65
2022/07/06 08:16:27;;;;;;;2.20;2.00;;;21.70;57.80;;;;;;5096619;28;20035;-64
2022/07/06 08:18:54;;;;;;;3.47;1.85;;;21.80;57.90;;;;;;5095537;28;20124;-65
2022/07/06 08:21:20;;;;;;;2.97;1.90;;;21.90;58.00;;;;;;5094348;28;20131;-64
2022/07/06 08:23:45;;;;;;;2.60;1.80;;;22.00;57.70;;;;;;5098221;28;20034;-65
2022/07/06 08:26:11;;;;;;;5.82;2.10;;;22.10;57.50;;;;;;5080053;28;20499;-65
2022/07/06 08:28:37;;;;;;;2.30;1.80;;;22.20;56.90;;;;;;5095583;27;20036;-65
2022/07/06 08:31:03;;;;;;;2.90;1.92;;;22.30;56.00;;;;;;5093661;28;20122;-64
2022/07/06 08:33:28;;;;;;;3.53;1.90;;;22.30;55.90;;;;;;5095877;28;20110;-64
2022/07/06 08:35:54;;;;;;;2.20;2.00;;;22.30;55.90;;;;;;5093639;28;20055;-65
2022/07/06 08:38:20;;;;;;;3.38;2.13;;;22.30;55.80;;;;;;5095466;28;20180;-65
2022/07/06 08:40:51;;;;;;;3.10;1.90;;;22.40;55.90;;;;;;5094927;28;20115;-64
2022/07/06 08:43:17;;;;;;;2.90;1.83;;;22.50;55.80;;;;;;5096896;28;20131;-65
2022/07/06 08:45:44;;;;;;;2.17;1.90;;;22.50;55.90;;;;;;5097061;28;20062;-64
2022/07/06 08:48:11;;;;;;;4.68;1.73;;;22.60;56.20;;;;;;5078650;28;20506;-64
2022/07/06 08:50:37;;;;;;;1.50;1.40;;;22.70;56.10;;;;;;5095530;28;20110;-64
2022/07/06 08:53:04;;;;;;;3.88;1.90;;;22.90;56.00;;;;;;5095911;27;20024;-65
2022/07/06 08:55:30;;;;;;;2.17;1.73;;;23.10;55.90;;;;;;5096064;28;20118;-64
2022/07/06 08:57:57;;;;;;;1.65;1.55;;;23.20;55.30;;;;;;5097178;28;20034;-65
2022/07/06 09:00:26;;;;;;;4.85;1.80;;;23.30;55.00;;;;;;5097888;28;20042;-65
2022/07/06 09:02:55;;;;;;;2.67;1.80;;;23.50;55.20;;;;;;5096179;28;20347;-65
2022/07/06 09:05:22;;;;;;;2.15;1.50;;;23.50;55.20;;;;;;5097984;28;20040;-64
2022/07/06 09:07:52;;;;;;;3.50;1.80;;;23.70;55.70;;;;;;5094671;28;20054;-65
2022/07/06 09:10:20;;;;;;;2.65;1.58;;;23.80;54.50;;;;;;5096424;28;20032;-64
2022/07/06 09:12:46;;;;;;;4.50;1.80;;;24.00;54.50;;;;;;5079472;28;20035;-65
2022/07/06 09:15:12;;;;;;;2.90;1.95;;;24.10;54.10;;;;;;5096234;28;20097;-65
2022/07/06 09:17:41;;;;;;;6.60;1.88;;;24.20;53.20;;;;;;5095706;28;20039;-65
2022/07/06 09:20:12;;;;;;;2.33;1.60;;;24.40;53.10;;;;;;5096895;28;20114;-64
2022/07/06 09:22:38;;;;;;;2.00;1.55;;;24.40;52.90;;;;;;5095810;28;20031;-64
2022/07/06 09:25:13;;;;;;;1.90;1.75;;;24.50;52.90;;;;;;5095024;28;20058;-64
2022/07/06 09:27:49;;;;;;;1.92;1.70;;;24.60;51.30;;;;;;5097016;28;20133;-64
2022/07/06 09:30:16;;;;;;;4.13;1.80;;;24.70;51.10;;;;;;5096335;28;20124;-64
2022/07/06 09:32:46;;;;;;;1.85;1.75;;;24.70;51.90;;;;;;5096793;28;20045;-64
2022/07/06 09:35:28;;;;;;;2.05;1.83;;;24.80;50.30;;;;;;5096883;28;20028;-64
2022/07/06 09:38:13;;;;;;;1.75;1.65;;;24.90;51.00;;;;;;5095698;28;20161;-64
2022/07/06 09:40:41;;;;;;;1.83;1.40;;;25.00;50.90;;;;;;5095427;28;20043;-64
2022/07/06 09:43:16;;;;;;;1.90;1.75;;;25.10;51.30;;;;;;5095490;28;20032;-65
2022/07/06 09:45:54;;;;;;;2.38;1.95;;;25.30;50.70;;;;;;5096851;28;20028;-65
2022/07/06 09:48:27;;;;;;;4.00;1.50;;;25.40;49.50;;;;;;5095673;28;20556;-64
2022/07/06 09:51:03;;;;;;;2.83;1.50;;;25.50;49.20;;;;;;5095699;28;20042;-64
2022/07/06 09:53:29;;;;;;;2.42;1.80;;;25.50;49.70;;;;;;5094837;28;20032;-64
2022/07/06 09:55:58;;;;;;;1.67;1.58;;;25.60;50.40;;;;;;5094586;28;20039;-65
2022/07/06 09:58:24;;;;;;;4.10;1.70;;;25.70;50.60;;;;;;5095150;28;20499;-64
2022/07/06 10:00:51;;;;;;;3.95;1.52;;;25.90;50.10;;;;;;5096678;28;20054;-65
2022/07/06 10:03:17;;;;;;;1.70;1.60;;;26.00;49.60;;;;;;5098430;28;20027;-65
2022/07/06 10:05:48;;;;;;;2.55;1.58;;;26.10;49.30;;;;;;5099118;28;20036;-65
2022/07/06 10:08:15;;;;;;;1.90;1.70;;;26.20;48.60;;;;;;5099033;28;20119;-65
2022/07/06 10:10:43;;;;;;;2.90;1.52;;;26.20;48.50;;;;;;5097266;28;20024;-65
2022/07/06 10:13:09;;;;;;;2.70;1.83;;;26.20;49.00;;;;;;5100123;28;20038;-65
2022/07/06 10:15:39;;;;;;;3.38;1.92;;;26.20;48.10;;;;;;5099864;28;20503;-65
2022/07/06 10:18:07;;;;;;;2.13;1.92;;;26.20;48.40;;;;;;5100152;28;20063;-65
2022/07/06 10:20:38;;;;;;;3.25;1.63;;;26.20;47.50;;;;;;5099071;28;20415;-65
2022/07/06 10:23:06;;;;;;;1.70;1.60;;;26.10;47.90;;;;;;5098305;28;20024;-65
2022/07/06 10:25:34;;;;;;;1.90;1.80;;;26.10;48.00;;;;;;5098061;28;20085;-65
2022/07/06 10:28:00;;;;;;;3.72;2.03;;;26.10;47.30;;;;;;5099100;28;20151;-64
2022/07/06 10:30:28;;;;;;;2.15;1.92;;;26.10;47.40;;;;;;5098780;28;20503;-65
2022/07/06 10:32:56;;;;;;;2.58;1.90;;;26.10;46.90;;;;;;5099776;28;20059;-64
2022/07/06 10:35:22;;;;;;;1.65;1.55;;;26.10;47.20;;;;;;5100405;28;20055;-65
2022/07/06 10:38:11;;;;;;;5.28;1.88;;;26.10;47.80;;;;;;5099319;28;20028;-65
2022/07/06 10:43:30;;;;;;;2.17;1.40;;;26.30;47.90;;;;;;5097579;28;20080;-65
2022/07/06 10:45:56;;;;;;;3.58;1.38;;;26.40;47.50;;;;;;5097354;27;20039;-64
2022/07/06 10:48:22;;;;;;;1.73;1.63;;;26.40;47.30;;;;;;5098774;28;20035;-65
2022/07/06 10:50:50;;;;;;;1.85;1.40;;;26.50;46.80;;;;;;5096182;28;20103;-65
2022/07/06 10:53:20;;;;;;;2.75;1.42;;;26.50;47.00;;;;;;5099526;27;20048;-65
2022/07/06 10:55:50;;;;;;;1.80;1.42;;;26.60;46.70;;;;;;5097391;28;20088;-65
2022/07/06 10:58:36;;;;;;;2.45;1.10;;;26.70;46.90;;;;;;5097683;28;20097;-65
2022/07/06 11:01:04;;;;;;;1.30;1.20;;;26.70;45.80;;;;;;5099843;28;20214;-65
2022/07/06 11:03:44;;;;;;;2.10;1.27;;;26.70;47.20;;;;;;5099491;28;20570;-65
2022/07/06 11:06:14;;;;;;;3.17;1.40;;;26.80;46.90;;;;;;5096861;28;20402;-64
2022/07/06 11:08:49;;;;;;;1.90;1.15;;;26.80;46.00;;;;;;5096457;28;20043;-65
2022/07/06 11:11:19;;;;;;;4.18;1.30;;;26.90;45.50;;;;;;5096223;28;20488;-65
2022/07/06 11:13:50;;;;;;;1.73;1.10;;;26.90;45.50;;;;;;5097356;28;20028;-65
2022/07/06 11:16:17;;;;;;;1.48;1.15;;;26.90;45.20;;;;;;5095444;28;20032;-65
2022/07/06 11:19:04;;;;;;;2.80;1.30;;;27.00;45.40;;;;;;5096172;28;20043;-64
2022/07/06 11:21:44;;;;;;;1.45;1.20;;;26.90;44.80;;;;;;5099057;28;20398;-64
2022/07/06 11:24:13;;;;;;;1.38;1.20;;;26.90;43.90;;;;;;5097712;28;20030;-65
2022/07/06 11:26:40;;;;;;;1.92;1.20;;;26.80;45.50;;;;;;5097430;28;20195;-64
2022/07/06 11:29:09;;;;;;;2.13;1.15;;;26.60;44.90;;;;;;5085345;28;20055;-65
2022/07/06 11:31:42;;;;;;;1.73;1.33;;;26.50;44.90;;;;;;5099146;28;20054;-65
2022/07/06 11:34:10;;;;;;;1.20;1.10;;;26.30;44.70;;;;;;5099018;28;20032;-65
2022/07/06 11:36:37;;;;;;;1.23;1.13;;;26.20;44.70;;;;;;5096828;28;20016;-65
2022/07/06 11:39:05;;;;;;;1.15;1.02;;;26.10;45.50;;;;;;5097560;28;20115;-65
2022/07/06 11:41:31;;;;;;;1.33;1.10;;;26.00;44.90;;;;;;5095750;28;20567;-65
2022/07/06 11:43:57;;;;;;;3.88;1.05;;;26.00;45.80;;;;;;5096505;28;20039;-64
2022/07/06 11:46:33;;;;;;;1.40;1.08;;;26.00;45.80;;;;;;5097653;28;20028;-65
2022/07/06 11:49:08;;;;;;;2.20;1.27;;;26.10;45.40;;;;;;5096789;28;20035;-65
2022/07/06 11:51:38;;;;;;;2.20;0.88;;;26.10;45.70;;;;;;5098526;28;20040;-65
2022/07/06 11:54:10;;;;;;;2.58;1.08;;;26.20;45.70;;;;;;5097694;28;20036;-64
2022/07/06 11:56:36;;;;;;;1.55;1.10;;;26.30;45.10;;;;;;5096010;28;20513;-65
2022/07/06 11:59:03;;;;;;;1.73;1.27;;;26.40;44.30;;;;;;5096961;28;20165;-65
2022/07/06 12:01:33;;;;;;;3.13;1.05;;;26.40;44.60;;;;;;5095146;28;20039;-65
2022/07/06 12:04:00;;;;;;;1.52;1.00;;;26.50;45.20;;;;;;5098976;28;20035;-65
2022/07/06 12:06:27;;;;;;;2.95;1.10;;;26.60;44.00;;;;;;5096827;28;20740;-64
2022/07/06 12:08:55;;;;;;;1.30;1.20;;;26.60;44.00;;;;;;5094745;28;20039;-64
2022/07/06 12:11:32;;;;;;;2.33;1.00;;;26.60;43.10;;;;;;5094881;27;20098;-65
2022/07/06 12:14:22;;;;;;;1.33;1.15;;;26.60;42.90;;;;;;5097788;28;20047;-64
2022/07/06 12:16:49;;;;;;;1.35;1.10;;;26.60;43.30;;;;;;5097602;27;20411;-65
2022/07/06 12:19:16;;;;;;;1.80;1.05;;;26.50;44.20;;;;;;5098804;28;20043;-65
2022/07/06 12:21:45;;;;;;;1.40;1.20;;;26.60;44.20;;;;;;5097077;28;20051;-64
2022/07/06 12:24:27;;;;;;;1.10;1.00;;;26.60;43.50;;;;;;5095303;28;20051;-64
2022/07/06 12:26:54;;;;;;;1.52;1.23;;;26.60;43.20;;;;;;5095259;28;20438;-65
2022/07/06 12:29:22;;;;;;;1.45;1.10;;;26.60;43.20;;;;;;5097121;28;20032;-64
2022/07/06 12:31:52;;;;;;;1.83;1.10;;;26.60;43.10;;;;;;5097141;28;20066;-65
2022/07/06 12:34:25;;;;;;;1.33;1.10;;;26.60;43.20;;;;;;5098204;28;20039;-65
2022/07/06 12:36:56;;;;;;;1.02;1.00;;;26.60;42.00;;;;;;5093779;28;20508;-65
2022/07/06 12:39:27;;;;;;;1.15;0.90;;;26.60;42.50;;;;;;5095098;28;20413;-64
2022/07/06 12:42:02;;;;;;;1.90;1.00;;;26.50;43.00;;;;;;5097116;28;20054;-65
2022/07/06 12:44:28;;;;;;;1.63;1.20;;;26.50;41.90;;;;;;5094721;28;20123;-64
2022/07/06 12:47:04;;;;;;;1.35;0.90;;;26.50;42.90;;;;;;5095252;28;20587;-64
2022/07/06 12:49:30;;;;;;;1.25;1.00;;;26.50;41.60;;;;;;5096868;28;20102;-65
2022/07/06 12:52:12;;;;;;;1.58;1.15;;;26.60;43.20;;;;;;5095998;28;20415;-65
2022/07/06 12:54:45;;;;;;;1.45;1.13;;;26.60;41.80;;;;;;5094257;28;20356;-65
2022/07/06 12:57:20;;;;;;;2.83;1.03;;;26.60;42.10;;;;;;5096480;28;20372;-64